createdAt,value
2023-12-15T00:03:56.358Z,6.00
2023-12-15T00:08:43.713Z,6.13
2023-12-15T00:13:33.625Z,6.13
2023-12-15T00:18:21.121Z,6.11
2023-12-15T00:23:08.321Z,5.96
2023-12-15T00:27:55.471Z,6.16
2023-12-15T00:32:45.844Z,6.21
2023-12-15T00:37:32.965Z,6.22
2023-12-15T00:42:20.200Z,6.24
2023-12-15T00:47:07.816Z,6.14
2023-12-15T00:51:58.744Z,5.98
2023-12-15T00:56:45.962Z,6.18
2023-12-15T01:01:33.045Z,5.97
2023-12-15T01:06:20.291Z,6.33
2023-12-15T01:11:10.309Z,6.20
2023-12-15T01:15:57.606Z,6.23
2023-12-15T01:20:44.777Z,6.02
2023-12-15T01:25:32.002Z,6.26
2023-12-15T01:30:21.808Z,6.21
2023-12-15T01:35:09.771Z,5.82
2023-12-15T01:39:56.993Z,6.32
2023-12-15T01:44:44.383Z,6.34
2023-12-15T01:49:34.217Z,6.34
2023-12-15T01:54:21.643Z,6.35
2023-12-15T01:59:11.444Z,6.34
2023-12-15T02:03:58.606Z,6.32
2023-12-15T02:08:48.550Z,6.26
2023-12-15T02:13:35.680Z,6.37
2023-12-15T02:18:22.826Z,6.13
2023-12-15T02:23:12.709Z,6.32
2023-12-15T02:27:59.936Z,6.40
2023-12-15T02:32:47.358Z,6.16
2023-12-15T02:37:35.027Z,6.27
2023-12-15T02:42:28.076Z,6.33
2023-12-15T02:47:15.191Z,6.26
2023-12-15T02:52:02.480Z,6.18
2023-12-15T02:57:04.880Z,6.43
2023-12-15T03:01:54.729Z,6.16
2023-12-15T03:06:41.921Z,6.23
2023-12-15T03:11:29.117Z,6.45
2023-12-15T03:16:16.521Z,6.45
2023-12-15T03:21:07.292Z,6.21
2023-12-15T03:25:54.775Z,6.36
2023-12-15T03:30:42.039Z,6.17
2023-12-15T03:35:29.217Z,6.41
2023-12-15T03:40:18.971Z,6.19
2023-12-15T03:45:07.644Z,6.38
2023-12-15T03:49:54.892Z,6.40
2023-12-15T03:54:42.073Z,6.45
2023-12-15T03:59:32.062Z,6.20
2023-12-15T04:04:19.609Z,6.24
2023-12-15T04:09:06.964Z,6.41
2023-12-15T04:13:54.150Z,6.39
2023-12-15T04:18:43.943Z,6.30
2023-12-15T04:23:31.236Z,6.26
2023-12-15T04:28:18.477Z,6.37
2023-12-15T04:33:05.761Z,6.50
2023-12-15T04:37:55.713Z,6.40
2023-12-15T04:42:43.091Z,6.35
2023-12-15T04:47:30.348Z,6.54
2023-12-15T04:52:17.556Z,6.56
2023-12-15T04:57:07.481Z,6.38
2023-12-15T05:01:54.591Z,6.58
2023-12-15T05:06:41.853Z,6.31
2023-12-15T05:11:29.057Z,6.07
2023-12-15T05:16:18.929Z,6.24
2023-12-15T05:21:06.925Z,6.55
2023-12-15T05:25:54.275Z,6.47
2023-12-15T05:30:41.897Z,6.05
2023-12-15T05:35:31.685Z,6.17
2023-12-15T05:40:18.949Z,6.69
2023-12-15T05:45:07.201Z,6.44
2023-12-15T05:49:54.487Z,6.58
2023-12-15T05:54:44.413Z,6.50
2023-12-15T05:59:31.683Z,6.25
2023-12-15T06:04:19.029Z,6.77
2023-12-15T06:09:06.130Z,6.52
2023-12-15T06:13:57.308Z,6.63
2023-12-15T06:18:44.876Z,6.77
2023-12-15T06:23:32.068Z,6.68
2023-12-15T06:28:19.230Z,6.63
2023-12-15T06:33:09.679Z,6.70
2023-12-15T06:37:56.928Z,6.85
2023-12-15T06:42:44.055Z,6.62
2023-12-15T06:47:31.291Z,6.29
2023-12-15T06:52:21.146Z,6.90
2023-12-15T06:57:08.422Z,6.84
2023-12-15T07:01:55.616Z,6.92
2023-12-15T07:06:42.885Z,6.94
2023-12-15T07:11:32.802Z,6.89
2023-12-15T07:16:20.033Z,6.85
2023-12-15T07:21:07.850Z,6.90
2023-12-15T07:25:55.120Z,6.81
2023-12-15T07:30:45.155Z,6.94
2023-12-15T07:35:33.495Z,6.74
2023-12-15T07:40:20.926Z,6.98
2023-12-15T07:45:14.465Z,6.97
2023-12-15T07:50:05.386Z,6.90
2023-12-15T07:54:54.184Z,6.96
2023-12-15T07:59:42.965Z,7.01
2023-12-15T08:04:32.566Z,7.03
2023-12-15T08:09:22.520Z,7.03
2023-12-15T08:14:09.711Z,6.85
2023-12-15T08:18:57.076Z,6.74
2023-12-15T08:23:44.295Z,6.88
2023-12-15T08:28:34.112Z,7.09
2023-12-15T08:33:21.298Z,7.01
2023-12-15T08:38:08.925Z,7.07
2023-12-15T08:42:56.093Z,7.14
2023-12-15T08:47:46.062Z,7.17
2023-12-15T08:52:33.456Z,6.92
2023-12-15T08:57:20.688Z,7.03
2023-12-15T09:02:07.993Z,7.22
2023-12-15T09:06:57.773Z,7.11
2023-12-15T09:11:45.087Z,7.15
2023-12-15T09:16:32.287Z,7.21
2023-12-15T09:21:19.620Z,7.34
2023-12-15T09:26:09.501Z,7.28
2023-12-15T09:30:56.913Z,6.92
2023-12-15T09:35:44.632Z,7.31
2023-12-15T09:40:33.841Z,7.28
2023-12-15T09:45:23.816Z,7.24
2023-12-15T09:50:13.460Z,7.48
2023-12-15T09:55:01.012Z,7.42
2023-12-15T09:59:48.635Z,7.52
2023-12-15T10:04:38.319Z,7.39
2023-12-15T10:09:28.413Z,7.58
2023-12-15T10:14:16.374Z,7.25
2023-12-15T10:19:04.823Z,7.59
2023-12-15T10:23:54.683Z,7.63
2023-12-15T10:28:42.166Z,7.47
2023-12-15T10:33:29.720Z,7.65
2023-12-15T10:38:17.270Z,7.56
2023-12-15T10:43:08.425Z,7.69
2023-12-15T10:47:58.984Z,7.77
2023-12-15T10:52:46.497Z,7.81
2023-12-15T10:57:33.928Z,7.88
2023-12-15T11:02:26.134Z,7.71
2023-12-15T11:07:13.412Z,7.87
2023-12-15T11:12:23.353Z,8.08
2023-12-15T11:17:12.134Z,7.68
2023-12-15T11:22:08.432Z,7.88
2023-12-15T11:26:55.605Z,8.20
2023-12-15T11:31:42.760Z,8.10
2023-12-15T11:36:32.698Z,8.39
2023-12-15T11:41:22.520Z,8.00
2023-12-15T11:46:10.230Z,7.57
2023-12-15T11:50:57.604Z,7.56
2023-12-15T11:55:46.749Z,7.63
2023-12-15T12:00:36.822Z,7.84
2023-12-15T12:05:24.757Z,8.47
2023-12-15T12:10:12.093Z,8.32
2023-12-15T12:15:03.699Z,8.33
2023-12-15T12:19:53.531Z,8.55
2023-12-15T12:24:41.726Z,8.60
2023-12-15T12:29:31.716Z,8.79
2023-12-15T12:34:19.154Z,8.80
2023-12-15T12:39:09.065Z,8.44
2023-12-15T12:43:56.232Z,8.69
2023-12-15T12:48:45.806Z,8.84
2023-12-15T12:53:33.081Z,8.27
2023-12-15T12:58:23.183Z,8.82
2023-12-15T13:03:10.488Z,8.78
2023-12-15T13:08:01.442Z,8.50
2023-12-15T13:12:59.523Z,8.29
2023-12-15T13:17:49.623Z,7.72
2023-12-15T13:22:47.378Z,8.85
2023-12-15T13:27:36.032Z,8.78
2023-12-15T13:32:24.585Z,8.77
2023-12-15T13:37:18.261Z,8.59
2023-12-15T13:42:06.646Z,8.62
2023-12-15T13:46:55.191Z,8.76
2023-12-15T13:51:42.576Z,8.73
2023-12-15T13:56:32.656Z,8.63
2023-12-15T14:01:21.702Z,8.71
2023-12-15T14:06:09.253Z,8.60
2023-12-15T14:10:56.811Z,8.72
2023-12-15T14:15:48.573Z,8.71
2023-12-15T14:20:43.430Z,8.55
2023-12-15T14:25:34.061Z,8.63
2023-12-15T14:30:21.608Z,8.14
2023-12-15T14:35:32.127Z,8.63
2023-12-15T14:40:21.431Z,7.60
2023-12-15T14:45:15.606Z,8.59
2023-12-15T14:50:04.561Z,8.21
2023-12-15T14:55:00.965Z,8.36
2023-12-15T14:59:52.978Z,8.03
2023-12-15T15:04:47.858Z,8.56
2023-12-15T15:09:41.266Z,7.95
2023-12-15T15:14:31.380Z,8.19
2023-12-15T15:19:22.155Z,7.99
2023-12-15T15:24:09.840Z,8.48
2023-12-15T15:29:00.480Z,7.32
2023-12-15T15:33:54.389Z,7.48
2023-12-15T15:38:42.068Z,8.40
2023-12-15T15:43:34.062Z,8.38
2023-12-15T15:48:34.952Z,7.53
2023-12-15T15:53:54.301Z,8.34
2023-12-15T15:58:45.028Z,7.78
2023-12-15T16:03:46.210Z,7.51
2023-12-15T16:08:54.285Z,7.29
2023-12-15T16:13:41.801Z,7.22
2023-12-15T16:18:30.467Z,7.18
2023-12-15T16:23:17.726Z,8.27
2023-12-15T16:28:11.569Z,7.82
2023-12-15T16:33:01.281Z,7.83
2023-12-15T16:37:50.924Z,7.87
2023-12-15T16:42:47.502Z,8.21
2023-12-15T16:47:46.498Z,7.97
2023-12-15T16:52:36.173Z,8.19
2023-12-15T16:57:23.481Z,7.97
2023-12-15T17:02:13.147Z,8.15
2023-12-15T17:07:05.565Z,7.56
2023-12-15T17:11:55.486Z,8.13
2023-12-15T17:16:42.615Z,7.84
2023-12-15T17:21:29.903Z,7.67
2023-12-15T17:26:20.142Z,7.98
2023-12-15T17:31:07.688Z,8.04
2023-12-15T17:35:55.076Z,7.46
2023-12-15T17:40:42.465Z,7.32
2023-12-15T17:45:42.970Z,7.62
2023-12-15T17:50:30.450Z,7.43
2023-12-15T17:55:19.184Z,8.04
2023-12-15T18:00:08.476Z,7.91
2023-12-15T18:04:58.543Z,7.61
2023-12-15T18:09:46.193Z,8.04
2023-12-15T18:14:33.712Z,8.02
2023-12-15T18:19:20.848Z,8.02
2023-12-15T18:24:11.995Z,7.99
2023-12-15T18:28:59.394Z,8.03
2023-12-15T18:33:46.727Z,7.76
2023-12-15T18:38:35.199Z,8.01
2023-12-15T18:43:25.118Z,7.67
2023-12-15T18:48:12.445Z,8.01
2023-12-15T18:53:00.836Z,7.54
2023-12-15T18:57:52.291Z,7.97
2023-12-15T19:02:43.029Z,7.65
2023-12-15T19:07:30.288Z,7.92
2023-12-15T19:12:17.827Z,7.94
2023-12-15T19:17:05.289Z,7.55
2023-12-15T19:21:55.423Z,7.71
2023-12-15T19:26:43.468Z,7.77
2023-12-15T19:31:32.302Z,7.94
2023-12-15T19:36:27.338Z,7.88
2023-12-15T19:41:20.640Z,7.77
2023-12-15T19:46:09.285Z,7.82
2023-12-15T19:50:56.521Z,7.89
2023-12-15T19:55:43.603Z,7.50
2023-12-15T20:00:33.945Z,7.87
2023-12-15T20:05:21.380Z,7.71
2023-12-15T20:10:09.963Z,7.79
2023-12-15T20:14:57.148Z,7.65
2023-12-15T20:19:46.951Z,7.75
2023-12-15T20:24:35.281Z,7.67
2023-12-15T20:29:22.667Z,7.56
2023-12-15T20:34:10.021Z,7.78
2023-12-15T20:38:59.934Z,7.83
2023-12-15T20:43:47.108Z,7.78
2023-12-15T20:48:34.524Z,7.79
2023-12-15T20:53:21.725Z,7.83
2023-12-15T20:58:11.657Z,7.83
2023-12-15T21:02:58.996Z,7.77
2023-12-15T21:07:46.253Z,7.74
2023-12-15T21:12:33.372Z,7.60
2023-12-15T21:17:23.185Z,7.70
2023-12-15T21:22:10.348Z,7.76
2023-12-15T21:26:57.473Z,7.89
2023-12-15T21:31:46.745Z,7.84
2023-12-15T21:36:36.832Z,7.85
2023-12-15T21:41:24.247Z,7.88
2023-12-15T21:46:11.704Z,7.80
2023-12-15T21:51:01.238Z,7.87
2023-12-15T21:55:51.131Z,7.81
2023-12-15T22:00:38.220Z,7.61
2023-12-15T22:05:27.671Z,7.65
2023-12-15T22:10:16.281Z,7.18
2023-12-15T22:15:07.073Z,7.80
2023-12-15T22:19:54.432Z,7.69
2023-12-15T22:24:44.056Z,7.72
2023-12-15T22:29:32.609Z,7.54
2023-12-15T22:34:22.446Z,7.75
2023-12-15T22:39:09.705Z,7.65
2023-12-15T22:43:56.858Z,7.80
2023-12-15T22:48:44.146Z,7.51
2023-12-15T22:53:36.277Z,7.71
2023-12-15T22:58:25.943Z,7.59
2023-12-15T23:03:13.072Z,7.60
2023-12-15T23:08:00.303Z,7.57
2023-12-15T23:12:50.188Z,7.62
2023-12-15T23:17:37.626Z,7.56
2023-12-15T23:22:25.013Z,7.72
2023-12-15T23:27:12.194Z,7.56
2023-12-15T23:32:02.605Z,7.59
2023-12-15T23:36:49.823Z,7.01
2023-12-15T23:41:37.051Z,7.71
2023-12-15T23:46:24.368Z,7.64
2023-12-15T23:51:15.458Z,7.58
2023-12-15T23:56:04.234Z,7.56
